Chantilly, Virginia
Current Conditions -  °F | °C
As of 12:52 AM on Sunday 23 Nov 2014 (Local Time) from KIAD Reporting Station
Overcast Overcast  
Wind Chill: 37°   Ceiling: 11000
Heat Index: 41°   Visibility: 10mi
Dew Point: 19°   Wind: 6mph
Humidity: 41%   Direction: 190°S
Pressure: 30.22"   Gusts: NA
Location:  38.88°N, 77.44°W
Report Text: KIAD 230552Z 19005KT 10SM OVC110 05/M07 A3022 RMK AO2 SLP235 T00501072 10061 20044 58009
Loading
Personal Weather Stations






























Interactive Weather Map New forecast layout! Learn more

10-Day Weather Forecast

Advertisements
Track Severe Weather on mobile